sensor_id;sensor_type;location;lat;lon;timestamp;P1;durP1;ratioP1;P2;durP2;ratioP2
30303;SDS011;17112;48.636;10.152;2022-08-19T00:01:36;8.13;;;7.32;;
30303;SDS011;17112;48.636;10.152;2022-08-19T00:04:05;9.02;;;6.85;;
30303;SDS011;17112;48.636;10.152;2022-08-19T00:06:33;10.23;;;6.70;;
30303;SDS011;17112;48.636;10.152;2022-08-19T00:09:00;7.20;;;6.35;;
30303;SDS011;17112;48.636;10.152;2022-08-19T00:11:28;10.23;;;6.78;;
30303;SDS011;17112;48.636;10.152;2022-08-19T00:13:54;10.32;;;6.93;;
30303;SDS011;17112;48.636;10.152;2022-08-19T00:16:21;10.75;;;6.72;;
30303;SDS011;17112;48.636;10.152;2022-08-19T00:18:47;10.90;;;7.55;;
30303;SDS011;17112;48.636;10.152;2022-08-19T00:21:14;8.10;;;7.28;;
30303;SDS011;17112;48.636;10.152;2022-08-19T00:23:40;7.90;;;7.15;;
30303;SDS011;17112;48.636;10.152;2022-08-19T00:26:08;7.65;;;6.93;;
30303;SDS011;17112;48.636;10.152;2022-08-19T00:28:35;10.95;;;7.55;;
30303;SDS011;17112;48.636;10.152;2022-08-19T00:31:02;9.77;;;7.55;;
30303;SDS011;17112;48.636;10.152;2022-08-19T00:33:29;8.73;;;7.90;;
30303;SDS011;17112;48.636;10.152;2022-08-19T00:35:57;8.57;;;7.35;;
30303;SDS011;17112;48.636;10.152;2022-08-19T00:38:24;11.93;;;8.27;;
30303;SDS011;17112;48.636;10.152;2022-08-19T00:40:49;10.70;;;7.25;;
30303;SDS011;17112;48.636;10.152;2022-08-19T00:43:18;8.35;;;7.13;;
30303;SDS011;17112;48.636;10.152;2022-08-19T00:45:46;10.32;;;7.78;;
30303;SDS011;17112;48.636;10.152;2022-08-19T00:48:12;9.25;;;7.88;;
30303;SDS011;17112;48.636;10.152;2022-08-19T00:50:39;7.60;;;6.90;;
30303;SDS011;17112;48.636;10.152;2022-08-19T00:53:07;8.93;;;7.72;;
30303;SDS011;17112;48.636;10.152;2022-08-19T00:55:35;11.05;;;8.45;;
30303;SDS011;17112;48.636;10.152;2022-08-19T00:58:06;11.25;;;8.48;;
30303;SDS011;17112;48.636;10.152;2022-08-19T01:00:35;12.57;;;8.95;;
30303;SDS011;17112;48.636;10.152;2022-08-19T01:03:06;12.43;;;8.70;;
30303;SDS011;17112;48.636;10.152;2022-08-19T01:05:37;10.60;;;8.82;;
30303;SDS011;17112;48.636;10.152;2022-08-19T01:08:05;11.27;;;9.50;;
30303;SDS011;17112;48.636;10.152;2022-08-19T01:10:39;10.50;;;8.95;;
30303;SDS011;17112;48.636;10.152;2022-08-19T01:13:08;13.05;;;10.00;;
30303;SDS011;17112;48.636;10.152;2022-08-19T01:15:38;11.63;;;9.82;;
30303;SDS011;17112;48.636;10.152;2022-08-19T01:18:09;11.82;;;10.13;;
30303;SDS011;17112;48.636;10.152;2022-08-19T01:20:38;13.38;;;10.90;;
30303;SDS011;17112;48.636;10.152;2022-08-19T01:23:05;12.10;;;10.25;;
30303;SDS011;17112;48.636;10.152;2022-08-19T01:25:32;11.43;;;9.68;;
30303;SDS011;17112;48.636;10.152;2022-08-19T01:28:21;12.35;;;9.48;;
30303;SDS011;17112;48.636;10.152;2022-08-19T01:30:50;11.55;;;10.15;;
30303;SDS011;17112;48.636;10.152;2022-08-19T01:33:16;12.45;;;11.15;;
30303;SDS011;17112;48.636;10.152;2022-08-19T01:35:42;12.88;;;10.82;;
30303;SDS011;17112;48.636;10.152;2022-08-19T01:38:09;14.20;;;11.18;;
30303;SDS011;17112;48.636;10.152;2022-08-19T01:40:45;15.48;;;11.70;;
30303;SDS011;17112;48.636;10.152;2022-08-19T01:43:11;14.50;;;12.68;;
30303;SDS011;17112;48.636;10.152;2022-08-19T01:45:36;14.77;;;12.65;;
30303;SDS011;17112;48.636;10.152;2022-08-19T01:48:05;17.60;;;12.98;;
30303;SDS011;17112;48.636;10.152;2022-08-19T01:50:32;14.50;;;12.25;;
30303;SDS011;17112;48.636;10.152;2022-08-19T01:52:58;16.00;;;13.75;;
30303;SDS011;17112;48.636;10.152;2022-08-19T01:55:24;14.77;;;12.77;;
30303;SDS011;17112;48.636;10.152;2022-08-19T01:57:53;17.17;;;14.23;;
30303;SDS011;17112;48.636;10.152;2022-08-19T02:00:23;17.48;;;13.52;;
30303;SDS011;17112;48.636;10.152;2022-08-19T02:02:51;19.50;;;13.88;;
30303;SDS011;17112;48.636;10.152;2022-08-19T02:05:16;21.52;;;15.02;;
30303;SDS011;17112;48.636;10.152;2022-08-19T02:07:43;18.13;;;14.98;;
30303;SDS011;17112;48.636;10.152;2022-08-19T02:10:11;21.83;;;15.32;;
30303;SDS011;17112;48.636;10.152;2022-08-19T02:12:39;16.73;;;13.48;;
30303;SDS011;17112;48.636;10.152;2022-08-19T02:15:05;17.77;;;14.60;;
30303;SDS011;17112;48.636;10.152;2022-08-19T02:17:32;17.23;;;14.27;;
30303;SDS011;17112;48.636;10.152;2022-08-19T02:19:59;16.85;;;13.48;;
30303;SDS011;17112;48.636;10.152;2022-08-19T02:22:25;18.63;;;15.38;;
30303;SDS011;17112;48.636;10.152;2022-08-19T02:24:54;21.65;;;14.13;;
30303;SDS011;17112;48.636;10.152;2022-08-19T02:27:20;16.38;;;13.38;;
30303;SDS011;17112;48.636;10.152;2022-08-19T02:29:47;17.60;;;14.38;;
30303;SDS011;17112;48.636;10.152;2022-08-19T02:32:14;17.40;;;13.73;;
30303;SDS011;17112;48.636;10.152;2022-08-19T02:34:40;16.70;;;13.82;;
30303;SDS011;17112;48.636;10.152;2022-08-19T02:37:06;16.95;;;14.05;;
30303;SDS011;17112;48.636;10.152;2022-08-19T02:39:52;15.65;;;12.68;;
30303;SDS011;17112;48.636;10.152;2022-08-19T02:42:18;19.60;;;13.82;;
30303;SDS011;17112;48.636;10.152;2022-08-19T02:44:43;18.35;;;13.07;;
30303;SDS011;17112;48.636;10.152;2022-08-19T02:47:09;14.10;;;12.15;;
30303;SDS011;17112;48.636;10.152;2022-08-19T02:49:35;17.15;;;13.65;;
30303;SDS011;17112;48.636;10.152;2022-08-19T02:52:01;19.10;;;14.02;;
30303;SDS011;17112;48.636;10.152;2022-08-19T02:54:28;17.27;;;13.32;;
30303;SDS011;17112;48.636;10.152;2022-08-19T02:56:53;18.42;;;14.48;;
30303;SDS011;17112;48.636;10.152;2022-08-19T02:59:19;18.73;;;14.10;;
30303;SDS011;17112;48.636;10.152;2022-08-19T03:01:45;17.23;;;13.98;;
30303;SDS011;17112;48.636;10.152;2022-08-19T03:04:12;17.75;;;14.10;;
30303;SDS011;17112;48.636;10.152;2022-08-19T03:06:40;16.75;;;13.57;;
30303;SDS011;17112;48.636;10.152;2022-08-19T03:09:07;16.60;;;14.25;;
30303;SDS011;17112;48.636;10.152;2022-08-19T03:11:34;17.88;;;13.68;;
30303;SDS011;17112;48.636;10.152;2022-08-19T03:14:00;16.17;;;13.82;;
30303;SDS011;17112;48.636;10.152;2022-08-19T03:16:28;19.33;;;14.55;;
30303;SDS011;17112;48.636;10.152;2022-08-19T03:18:55;18.25;;;14.25;;
30303;SDS011;17112;48.636;10.152;2022-08-19T03:21:25;19.50;;;14.27;;
30303;SDS011;17112;48.636;10.152;2022-08-19T03:24:00;20.27;;;14.60;;
30303;SDS011;17112;48.636;10.152;2022-08-19T03:26:29;20.42;;;15.27;;
30303;SDS011;17112;48.636;10.152;2022-08-19T03:28:55;19.00;;;15.00;;
30303;SDS011;17112;48.636;10.152;2022-08-19T03:31:21;20.13;;;15.65;;
30303;SDS011;17112;48.636;10.152;2022-08-19T03:33:49;16.20;;;13.85;;
30303;SDS011;17112;48.636;10.152;2022-08-19T03:36:16;18.58;;;14.80;;
30303;SDS011;17112;48.636;10.152;2022-08-19T03:38:51;17.77;;;13.68;;
30303;SDS011;17112;48.636;10.152;2022-08-19T03:41:20;18.00;;;14.60;;
30303;SDS011;17112;48.636;10.152;2022-08-19T03:43:48;19.02;;;14.65;;
30303;SDS011;17112;48.636;10.152;2022-08-19T03:46:19;17.67;;;14.32;;
30303;SDS011;17112;48.636;10.152;2022-08-19T03:48:55;17.35;;;12.43;;
30303;SDS011;17112;48.636;10.152;2022-08-19T03:51:24;16.08;;;13.48;;
30303;SDS011;17112;48.636;10.152;2022-08-19T03:53:51;18.25;;;13.90;;
30303;SDS011;17112;48.636;10.152;2022-08-19T03:56:19;18.60;;;13.95;;
30303;SDS011;17112;48.636;10.152;2022-08-19T03:58:45;17.98;;;13.45;;
30303;SDS011;17112;48.636;10.152;2022-08-19T04:01:13;16.30;;;13.55;;
30303;SDS011;17112;48.636;10.152;2022-08-19T04:03:40;17.10;;;12.48;;
30303;SDS011;17112;48.636;10.152;2022-08-19T04:06:26;20.23;;;13.25;;
30303;SDS011;17112;48.636;10.152;2022-08-19T04:08:57;17.10;;;13.63;;
30303;SDS011;17112;48.636;10.152;2022-08-19T04:11:26;16.92;;;13.35;;
30303;SDS011;17112;48.636;10.152;2022-08-19T04:13:58;16.08;;;12.88;;
30303;SDS011;17112;48.636;10.152;2022-08-19T04:16:25;17.95;;;13.60;;
30303;SDS011;17112;48.636;10.152;2022-08-19T04:18:53;17.50;;;13.27;;
30303;SDS011;17112;48.636;10.152;2022-08-19T04:21:21;18.80;;;12.75;;
30303;SDS011;17112;48.636;10.152;2022-08-19T04:23:49;18.02;;;14.20;;
30303;SDS011;17112;48.636;10.152;2022-08-19T04:26:16;18.02;;;14.18;;
30303;SDS011;17112;48.636;10.152;2022-08-19T04:28:45;18.00;;;13.50;;
30303;SDS011;17112;48.636;10.152;2022-08-19T04:31:15;19.88;;;14.07;;
30303;SDS011;17112;48.636;10.152;2022-08-19T04:33:43;19.13;;;13.30;;
30303;SDS011;17112;48.636;10.152;2022-08-19T04:36:19;16.77;;;13.55;;
30303;SDS011;17112;48.636;10.152;2022-08-19T04:38:50;19.73;;;13.50;;
30303;SDS011;17112;48.636;10.152;2022-08-19T04:41:19;15.45;;;13.25;;
30303;SDS011;17112;48.636;10.152;2022-08-19T04:44:03;19.92;;;13.88;;
30303;SDS011;17112;48.636;10.152;2022-08-19T04:46:29;17.40;;;14.05;;
30303;SDS011;17112;48.636;10.152;2022-08-19T04:48:57;17.20;;;13.48;;
30303;SDS011;17112;48.636;10.152;2022-08-19T04:51:24;19.35;;;14.55;;
30303;SDS011;17112;48.636;10.152;2022-08-19T04:53:50;18.95;;;13.85;;
30303;SDS011;17112;48.636;10.152;2022-08-19T04:56:17;21.77;;;14.68;;
30303;SDS011;17112;48.636;10.152;2022-08-19T04:58:45;21.33;;;14.70;;
30303;SDS011;17112;48.636;10.152;2022-08-19T05:01:12;17.58;;;12.90;;
30303;SDS011;17112;48.636;10.152;2022-08-19T05:03:46;15.30;;;12.27;;
30303;SDS011;17112;48.636;10.152;2022-08-19T05:06:13;19.17;;;13.73;;
30303;SDS011;17112;48.636;10.152;2022-08-19T05:08:40;17.13;;;13.85;;
30303;SDS011;17112;48.636;10.152;2022-08-19T05:11:09;17.45;;;13.60;;
30303;SDS011;17112;48.636;10.152;2022-08-19T05:13:37;16.77;;;13.38;;
30303;SDS011;17112;48.636;10.152;2022-08-19T05:16:03;19.20;;;14.13;;
30303;SDS011;17112;48.636;10.152;2022-08-19T05:18:29;17.75;;;13.82;;
30303;SDS011;17112;48.636;10.152;2022-08-19T05:21:15;19.35;;;13.88;;
30303;SDS011;17112;48.636;10.152;2022-08-19T05:24:01;20.70;;;14.30;;
30303;SDS011;17112;48.636;10.152;2022-08-19T05:26:27;21.42;;;15.10;;
30303;SDS011;17112;48.636;10.152;2022-08-19T05:28:53;18.85;;;14.65;;
30303;SDS011;17112;48.636;10.152;2022-08-19T05:31:20;21.73;;;15.00;;
30303;SDS011;17112;48.636;10.152;2022-08-19T05:33:46;27.85;;;14.93;;
30303;SDS011;17112;48.636;10.152;2022-08-19T05:36:12;18.38;;;14.18;;
30303;SDS011;17112;48.636;10.152;2022-08-19T05:38:39;20.67;;;14.55;;
30303;SDS011;17112;48.636;10.152;2022-08-19T05:41:12;20.05;;;14.77;;
30303;SDS011;17112;48.636;10.152;2022-08-19T05:43:39;23.25;;;14.43;;
30303;SDS011;17112;48.636;10.152;2022-08-19T05:46:06;21.95;;;15.48;;
30303;SDS011;17112;48.636;10.152;2022-08-19T05:48:32;20.50;;;15.70;;
30303;SDS011;17112;48.636;10.152;2022-08-19T05:51:03;22.90;;;15.63;;
30303;SDS011;17112;48.636;10.152;2022-08-19T05:53:33;21.77;;;15.52;;
30303;SDS011;17112;48.636;10.152;2022-08-19T05:56:04;19.55;;;15.02;;
30303;SDS011;17112;48.636;10.152;2022-08-19T05:58:30;23.35;;;14.95;;
30303;SDS011;17112;48.636;10.152;2022-08-19T06:00:57;20.48;;;14.57;;
30303;SDS011;17112;48.636;10.152;2022-08-19T06:03:29;19.52;;;14.65;;
30303;SDS011;17112;48.636;10.152;2022-08-19T06:05:58;20.55;;;14.57;;
30303;SDS011;17112;48.636;10.152;2022-08-19T06:08:25;21.02;;;15.88;;
30303;SDS011;17112;48.636;10.152;2022-08-19T06:10:52;19.58;;;15.38;;
30303;SDS011;17112;48.636;10.152;2022-08-19T06:13:18;22.85;;;15.20;;
30303;SDS011;17112;48.636;10.152;2022-08-19T06:15:44;20.02;;;15.10;;
30303;SDS011;17112;48.636;10.152;2022-08-19T06:18:12;21.95;;;15.30;;
30303;SDS011;17112;48.636;10.152;2022-08-19T06:20:38;22.08;;;15.68;;
30303;SDS011;17112;48.636;10.152;2022-08-19T06:23:04;21.02;;;14.93;;
30303;SDS011;17112;48.636;10.152;2022-08-19T06:25:30;17.55;;;13.77;;
30303;SDS011;17112;48.636;10.152;2022-08-19T06:27:56;26.83;;;15.73;;
30303;SDS011;17112;48.636;10.152;2022-08-19T06:30:22;23.08;;;14.98;;
30303;SDS011;17112;48.636;10.152;2022-08-19T06:32:48;23.13;;;15.93;;
30303;SDS011;17112;48.636;10.152;2022-08-19T06:35:14;21.67;;;16.35;;
30303;SDS011;17112;48.636;10.152;2022-08-19T06:37:40;26.60;;;16.33;;
30303;SDS011;17112;48.636;10.152;2022-08-19T06:40:06;21.85;;;15.63;;
30303;SDS011;17112;48.636;10.152;2022-08-19T06:42:34;21.95;;;15.02;;
30303;SDS011;17112;48.636;10.152;2022-08-19T06:45:00;24.92;;;16.92;;
30303;SDS011;17112;48.636;10.152;2022-08-19T06:47:29;20.80;;;15.63;;
30303;SDS011;17112;48.636;10.152;2022-08-19T06:49:56;21.38;;;16.15;;
30303;SDS011;17112;48.636;10.152;2022-08-19T06:52:28;24.65;;;15.85;;
30303;SDS011;17112;48.636;10.152;2022-08-19T06:54:54;22.90;;;15.32;;
30303;SDS011;17112;48.636;10.152;2022-08-19T06:57:21;23.17;;;16.02;;
30303;SDS011;17112;48.636;10.152;2022-08-19T06:59:48;23.20;;;16.40;;
30303;SDS011;17112;48.636;10.152;2022-08-19T07:02:13;24.63;;;16.42;;
30303;SDS011;17112;48.636;10.152;2022-08-19T07:04:39;23.77;;;16.38;;
30303;SDS011;17112;48.636;10.152;2022-08-19T07:07:09;22.80;;;16.15;;
30303;SDS011;17112;48.636;10.152;2022-08-19T07:09:38;25.52;;;16.55;;
30303;SDS011;17112;48.636;10.152;2022-08-19T07:12:06;28.48;;;16.58;;
30303;SDS011;17112;48.636;10.152;2022-08-19T07:14:34;25.25;;;16.00;;
30303;SDS011;17112;48.636;10.152;2022-08-19T07:17:02;22.73;;;15.15;;
30303;SDS011;17112;48.636;10.152;2022-08-19T07:19:29;23.60;;;16.40;;
30303;SDS011;17112;48.636;10.152;2022-08-19T07:21:56;22.85;;;15.40;;
30303;SDS011;17112;48.636;10.152;2022-08-19T07:24:24;25.35;;;16.17;;
30303;SDS011;17112;48.636;10.152;2022-08-19T07:26:52;23.23;;;14.45;;
30303;SDS011;17112;48.636;10.152;2022-08-19T07:29:20;23.05;;;15.32;;
30303;SDS011;17112;48.636;10.152;2022-08-19T07:31:48;20.95;;;15.80;;
30303;SDS011;17112;48.636;10.152;2022-08-19T07:34:14;21.85;;;15.85;;
30303;SDS011;17112;48.636;10.152;2022-08-19T07:36:41;24.48;;;15.60;;
30303;SDS011;17112;48.636;10.152;2022-08-19T07:39:08;20.27;;;14.45;;
30303;SDS011;17112;48.636;10.152;2022-08-19T07:41:37;19.52;;;14.45;;
30303;SDS011;17112;48.636;10.152;2022-08-19T07:44:03;19.40;;;14.32;;
30303;SDS011;17112;48.636;10.152;2022-08-19T07:46:33;21.20;;;15.50;;
30303;SDS011;17112;48.636;10.152;2022-08-19T07:49:00;22.42;;;14.93;;
30303;SDS011;17112;48.636;10.152;2022-08-19T07:51:29;19.90;;;13.95;;
30303;SDS011;17112;48.636;10.152;2022-08-19T07:53:55;21.27;;;16.40;;
30303;SDS011;17112;48.636;10.152;2022-08-19T07:56:22;18.55;;;14.70;;
30303;SDS011;17112;48.636;10.152;2022-08-19T07:58:49;28.45;;;15.65;;
30303;SDS011;17112;48.636;10.152;2022-08-19T08:01:18;20.35;;;15.02;;
30303;SDS011;17112;48.636;10.152;2022-08-19T08:03:46;20.95;;;14.40;;
30303;SDS011;17112;48.636;10.152;2022-08-19T08:06:32;20.58;;;15.27;;
30303;SDS011;17112;48.636;10.152;2022-08-19T08:09:18;20.70;;;14.90;;
30303;SDS011;17112;48.636;10.152;2022-08-19T08:11:54;21.50;;;14.60;;
30303;SDS011;17112;48.636;10.152;2022-08-19T08:14:30;20.92;;;15.77;;
30303;SDS011;17112;48.636;10.152;2022-08-19T08:17:02;20.20;;;15.00;;
30303;SDS011;17112;48.636;10.152;2022-08-19T08:19:29;23.10;;;16.13;;
30303;SDS011;17112;48.636;10.152;2022-08-19T08:21:56;23.00;;;16.45;;
30303;SDS011;17112;48.636;10.152;2022-08-19T08:24:24;23.23;;;17.05;;
30303;SDS011;17112;48.636;10.152;2022-08-19T08:26:51;23.08;;;15.50;;
30303;SDS011;17112;48.636;10.152;2022-08-19T08:29:17;21.77;;;16.08;;
30303;SDS011;17112;48.636;10.152;2022-08-19T08:31:44;21.98;;;14.93;;
30303;SDS011;17112;48.636;10.152;2022-08-19T08:34:10;23.60;;;15.35;;
30303;SDS011;17112;48.636;10.152;2022-08-19T08:36:41;22.33;;;15.45;;
30303;SDS011;17112;48.636;10.152;2022-08-19T08:39:10;23.63;;;15.43;;
30303;SDS011;17112;48.636;10.152;2022-08-19T08:41:54;23.05;;;16.05;;
30303;SDS011;17112;48.636;10.152;2022-08-19T08:44:51;22.05;;;14.48;;
30303;SDS011;17112;48.636;10.152;2022-08-19T08:47:23;20.27;;;15.30;;
30303;SDS011;17112;48.636;10.152;2022-08-19T08:49:54;22.75;;;15.73;;
30303;SDS011;17112;48.636;10.152;2022-08-19T08:52:28;24.90;;;15.63;;
30303;SDS011;17112;48.636;10.152;2022-08-19T08:55:03;25.05;;;14.93;;
30303;SDS011;17112;48.636;10.152;2022-08-19T09:00:26;21.10;;;15.38;;
30303;SDS011;17112;48.636;10.152;2022-08-19T09:02:55;19.65;;;14.57;;
30303;SDS011;17112;48.636;10.152;2022-08-19T09:05:23;18.05;;;13.73;;
30303;SDS011;17112;48.636;10.152;2022-08-19T09:10:34;24.73;;;16.20;;
30303;SDS011;17112;48.636;10.152;2022-08-19T09:16:00;19.08;;;14.27;;
30303;SDS011;17112;48.636;10.152;2022-08-19T09:18:45;22.92;;;16.02;;
30303;SDS011;17112;48.636;10.152;2022-08-19T09:21:17;19.05;;;14.93;;
30303;SDS011;17112;48.636;10.152;2022-08-19T09:23:45;23.58;;;16.08;;
30303;SDS011;17112;48.636;10.152;2022-08-19T09:26:12;21.23;;;15.68;;
30303;SDS011;17112;48.636;10.152;2022-08-19T09:28:40;22.25;;;15.95;;
30303;SDS011;17112;48.636;10.152;2022-08-19T09:31:13;18.88;;;14.10;;
30303;SDS011;17112;48.636;10.152;2022-08-19T09:33:41;22.77;;;15.90;;
30303;SDS011;17112;48.636;10.152;2022-08-19T09:36:09;22.00;;;15.20;;
30303;SDS011;17112;48.636;10.152;2022-08-19T09:38:37;21.13;;;14.57;;
30303;SDS011;17112;48.636;10.152;2022-08-19T09:41:11;21.67;;;15.05;;
30303;SDS011;17112;48.636;10.152;2022-08-19T09:43:39;19.83;;;16.20;;
30303;SDS011;17112;48.636;10.152;2022-08-19T09:46:07;22.38;;;15.13;;
30303;SDS011;17112;48.636;10.152;2022-08-19T09:48:37;20.67;;;16.17;;
30303;SDS011;17112;48.636;10.152;2022-08-19T09:51:11;20.85;;;15.43;;
30303;SDS011;17112;48.636;10.152;2022-08-19T09:53:45;19.08;;;15.10;;
30303;SDS011;17112;48.636;10.152;2022-08-19T09:56:12;19.65;;;15.32;;
30303;SDS011;17112;48.636;10.152;2022-08-19T09:58:38;21.35;;;15.70;;
30303;SDS011;17112;48.636;10.152;2022-08-19T10:01:05;20.75;;;16.25;;
30303;SDS011;17112;48.636;10.152;2022-08-19T10:03:31;19.67;;;15.35;;
30303;SDS011;17112;48.636;10.152;2022-08-19T10:05:59;22.30;;;15.88;;
30303;SDS011;17112;48.636;10.152;2022-08-19T10:08:31;21.63;;;14.75;;
30303;SDS011;17112;48.636;10.152;2022-08-19T10:10:58;20.45;;;15.38;;
30303;SDS011;17112;48.636;10.152;2022-08-19T10:13:26;21.63;;;15.80;;
30303;SDS011;17112;48.636;10.152;2022-08-19T10:15:53;19.52;;;14.82;;
30303;SDS011;17112;48.636;10.152;2022-08-19T10:18:22;22.30;;;15.63;;
30303;SDS011;17112;48.636;10.152;2022-08-19T10:20:49;21.48;;;15.45;;
30303;SDS011;17112;48.636;10.152;2022-08-19T10:23:16;22.65;;;16.08;;
30303;SDS011;17112;48.636;10.152;2022-08-19T10:25:42;22.92;;;16.55;;
30303;SDS011;17112;48.636;10.152;2022-08-19T10:28:08;22.33;;;15.77;;
30303;SDS011;17112;48.636;10.152;2022-08-19T10:30:37;20.50;;;15.15;;
30303;SDS011;17112;48.636;10.152;2022-08-19T10:33:04;25.52;;;17.55;;
30303;SDS011;17112;48.636;10.152;2022-08-19T10:35:31;18.73;;;14.23;;
30303;SDS011;17112;48.636;10.152;2022-08-19T10:37:57;25.85;;;16.80;;
30303;SDS011;17112;48.636;10.152;2022-08-19T10:40:24;21.70;;;15.80;;
30303;SDS011;17112;48.636;10.152;2022-08-19T10:42:51;24.42;;;16.45;;
30303;SDS011;17112;48.636;10.152;2022-08-19T10:45:18;20.95;;;16.00;;
30303;SDS011;17112;48.636;10.152;2022-08-19T10:47:43;22.42;;;15.50;;
30303;SDS011;17112;48.636;10.152;2022-08-19T10:50:09;21.00;;;15.25;;
30303;SDS011;17112;48.636;10.152;2022-08-19T10:52:53;22.70;;;16.05;;
30303;SDS011;17112;48.636;10.152;2022-08-19T10:55:20;23.23;;;16.27;;
30303;SDS011;17112;48.636;10.152;2022-08-19T10:58:10;22.20;;;16.20;;
30303;SDS011;17112;48.636;10.152;2022-08-19T11:00:40;21.45;;;16.42;;
30303;SDS011;17112;48.636;10.152;2022-08-19T11:03:07;25.63;;;16.25;;
30303;SDS011;17112;48.636;10.152;2022-08-19T11:05:33;21.08;;;16.35;;
30303;SDS011;17112;48.636;10.152;2022-08-19T11:07:58;22.20;;;16.92;;
30303;SDS011;17112;48.636;10.152;2022-08-19T11:10:24;23.67;;;16.50;;
30303;SDS011;17112;48.636;10.152;2022-08-19T11:12:50;24.25;;;16.33;;
30303;SDS011;17112;48.636;10.152;2022-08-19T11:15:19;23.55;;;16.10;;
30303;SDS011;17112;48.636;10.152;2022-08-19T11:17:45;24.63;;;17.60;;
30303;SDS011;17112;48.636;10.152;2022-08-19T11:20:12;21.05;;;15.05;;
30303;SDS011;17112;48.636;10.152;2022-08-19T11:22:39;22.08;;;16.25;;
30303;SDS011;17112;48.636;10.152;2022-08-19T11:25:06;20.25;;;14.52;;
30303;SDS011;17112;48.636;10.152;2022-08-19T11:27:33;23.02;;;15.27;;
30303;SDS011;17112;48.636;10.152;2022-08-19T11:29:58;20.98;;;15.75;;
30303;SDS011;17112;48.636;10.152;2022-08-19T11:32:25;23.27;;;16.05;;
30303;SDS011;17112;48.636;10.152;2022-08-19T11:34:51;23.17;;;15.05;;
30303;SDS011;17112;48.636;10.152;2022-08-19T11:37:17;24.77;;;16.25;;
30303;SDS011;17112;48.636;10.152;2022-08-19T11:39:42;19.58;;;14.73;;
30303;SDS011;17112;48.636;10.152;2022-08-19T11:42:08;22.50;;;15.75;;
30303;SDS011;17112;48.636;10.152;2022-08-19T11:44:54;21.45;;;14.82;;
30303;SDS011;17112;48.636;10.152;2022-08-19T11:47:20;18.85;;;14.05;;
30303;SDS011;17112;48.636;10.152;2022-08-19T11:49:46;20.88;;;15.20;;
30303;SDS011;17112;48.636;10.152;2022-08-19T11:52:17;22.00;;;14.75;;
30303;SDS011;17112;48.636;10.152;2022-08-19T11:54:43;20.80;;;15.80;;
30303;SDS011;17112;48.636;10.152;2022-08-19T11:57:08;21.27;;;14.50;;
30303;SDS011;17112;48.636;10.152;2022-08-19T11:59:34;22.95;;;14.90;;
30303;SDS011;17112;48.636;10.152;2022-08-19T12:02:00;19.48;;;14.77;;
30303;SDS011;17112;48.636;10.152;2022-08-19T12:04:25;21.48;;;13.85;;
30303;SDS011;17112;48.636;10.152;2022-08-19T12:06:51;19.75;;;12.77;;
30303;SDS011;17112;48.636;10.152;2022-08-19T12:09:17;18.80;;;13.20;;
30303;SDS011;17112;48.636;10.152;2022-08-19T12:11:43;19.52;;;12.55;;
30303;SDS011;17112;48.636;10.152;2022-08-19T12:14:10;13.60;;;10.77;;
30303;SDS011;17112;48.636;10.152;2022-08-19T12:16:38;19.75;;;13.10;;
30303;SDS011;17112;48.636;10.152;2022-08-19T12:19:05;15.73;;;12.18;;
30303;SDS011;17112;48.636;10.152;2022-08-19T12:21:32;14.52;;;10.80;;
30303;SDS011;17112;48.636;10.152;2022-08-19T12:24:00;13.52;;;10.48;;
30303;SDS011;17112;48.636;10.152;2022-08-19T12:26:27;11.95;;;9.93;;
30303;SDS011;17112;48.636;10.152;2022-08-19T12:28:54;12.95;;;10.18;;
30303;SDS011;17112;48.636;10.152;2022-08-19T12:31:20;13.60;;;9.23;;
30303;SDS011;17112;48.636;10.152;2022-08-19T12:33:46;9.38;;;7.90;;
30303;SDS011;17112;48.636;10.152;2022-08-19T12:36:12;10.77;;;8.73;;
30303;SDS011;17112;48.636;10.152;2022-08-19T12:38:40;9.13;;;7.20;;
30303;SDS011;17112;48.636;10.152;2022-08-19T12:41:08;9.52;;;6.95;;
30303;SDS011;17112;48.636;10.152;2022-08-19T12:43:36;9.00;;;6.78;;
30303;SDS011;17112;48.636;10.152;2022-08-19T12:46:06;8.38;;;6.70;;
30303;SDS011;17112;48.636;10.152;2022-08-19T12:48:32;6.55;;;5.68;;
30303;SDS011;17112;48.636;10.152;2022-08-19T12:51:01;7.30;;;5.78;;
30303;SDS011;17112;48.636;10.152;2022-08-19T12:53:35;6.85;;;5.60;;
30303;SDS011;17112;48.636;10.152;2022-08-19T12:56:01;7.75;;;5.40;;
30303;SDS011;17112;48.636;10.152;2022-08-19T12:58:27;7.78;;;6.30;;
30303;SDS011;17112;48.636;10.152;2022-08-19T13:00:54;9.25;;;5.72;;
30303;SDS011;17112;48.636;10.152;2022-08-19T13:03:20;7.07;;;5.63;;
30303;SDS011;17112;48.636;10.152;2022-08-19T13:05:47;7.53;;;5.55;;
30303;SDS011;17112;48.636;10.152;2022-08-19T13:08:15;7.22;;;5.97;;
30303;SDS011;17112;48.636;10.152;2022-08-19T13:10:41;8.35;;;5.80;;
30303;SDS011;17112;48.636;10.152;2022-08-19T13:13:08;6.80;;;6.05;;
30303;SDS011;17112;48.636;10.152;2022-08-19T13:15:38;6.65;;;5.57;;
30303;SDS011;17112;48.636;10.152;2022-08-19T13:18:06;8.30;;;5.53;;
30303;SDS011;17112;48.636;10.152;2022-08-19T13:20:34;5.40;;;4.90;;
30303;SDS011;17112;48.636;10.152;2022-08-19T13:23:01;5.78;;;4.53;;
30303;SDS011;17112;48.636;10.152;2022-08-19T13:25:27;5.20;;;4.47;;
30303;SDS011;17112;48.636;10.152;2022-08-19T13:27:53;5.65;;;4.25;;
30303;SDS011;17112;48.636;10.152;2022-08-19T13:30:20;3.85;;;3.47;;
30303;SDS011;17112;48.636;10.152;2022-08-19T13:33:06;4.30;;;3.90;;
30303;SDS011;17112;48.636;10.152;2022-08-19T13:35:45;4.07;;;3.67;;
30303;SDS011;17112;48.636;10.152;2022-08-19T13:38:12;8.43;;;3.70;;
30303;SDS011;17112;48.636;10.152;2022-08-19T13:40:40;7.13;;;3.40;;
30303;SDS011;17112;48.636;10.152;2022-08-19T13:43:06;3.97;;;3.25;;
30303;SDS011;17112;48.636;10.152;2022-08-19T13:45:33;4.82;;;3.47;;
30303;SDS011;17112;48.636;10.152;2022-08-19T13:47:59;4.47;;;3.75;;
30303;SDS011;17112;48.636;10.152;2022-08-19T13:50:30;6.75;;;2.97;;
30303;SDS011;17112;48.636;10.152;2022-08-19T13:52:56;4.07;;;2.92;;
30303;SDS011;17112;48.636;10.152;2022-08-19T13:55:22;5.90;;;3.10;;
30303;SDS011;17112;48.636;10.152;2022-08-19T13:57:52;5.28;;;3.08;;
30303;SDS011;17112;48.636;10.152;2022-08-19T14:00:19;4.40;;;2.92;;
30303;SDS011;17112;48.636;10.152;2022-08-19T14:02:46;2.92;;;2.63;;
30303;SDS011;17112;48.636;10.152;2022-08-19T14:05:16;3.58;;;2.67;;
30303;SDS011;17112;48.636;10.152;2022-08-19T14:07:42;3.58;;;2.95;;
30303;SDS011;17112;48.636;10.152;2022-08-19T14:10:09;3.85;;;2.95;;
30303;SDS011;17112;48.636;10.152;2022-08-19T14:12:36;3.65;;;2.70;;
30303;SDS011;17112;48.636;10.152;2022-08-19T14:15:02;3.90;;;3.05;;
30303;SDS011;17112;48.636;10.152;2022-08-19T14:17:29;6.28;;;3.35;;
30303;SDS011;17112;48.636;10.152;2022-08-19T14:19:58;5.72;;;3.50;;
30303;SDS011;17112;48.636;10.152;2022-08-19T14:22:34;4.75;;;3.65;;
30303;SDS011;17112;48.636;10.152;2022-08-19T14:25:05;5.65;;;3.63;;
30303;SDS011;17112;48.636;10.152;2022-08-19T14:27:33;7.60;;;3.78;;
30303;SDS011;17112;48.636;10.152;2022-08-19T14:30:03;6.57;;;3.65;;